sensor_id;sensor_type;location;lat;lon;timestamp;P1;durP1;ratioP1;P2;durP2;ratioP2
15567;SDS011;7885;42.596;23.044;2023-07-22T00:01:59;25.97;;;8.37;;
15567;SDS011;7885;42.596;23.044;2023-07-22T00:04:26;18.80;;;7.23;;
15567;SDS011;7885;42.596;23.044;2023-07-22T00:06:53;16.40;;;7.50;;
15567;SDS011;7885;42.596;23.044;2023-07-22T00:09:20;17.47;;;7.40;;
15567;SDS011;7885;42.596;23.044;2023-07-22T00:11:48;16.10;;;6.70;;
15567;SDS011;7885;42.596;23.044;2023-07-22T00:14:16;13.77;;;7.10;;
15567;SDS011;7885;42.596;23.044;2023-07-22T00:16:42;13.00;;;6.27;;
15567;SDS011;7885;42.596;23.044;2023-07-22T00:19:09;15.93;;;7.20;;
15567;SDS011;7885;42.596;23.044;2023-07-22T00:21:36;17.17;;;6.87;;
15567;SDS011;7885;42.596;23.044;2023-07-22T00:24:03;16.23;;;7.43;;
15567;SDS011;7885;42.596;23.044;2023-07-22T00:26:30;14.90;;;6.47;;
15567;SDS011;7885;42.596;23.044;2023-07-22T00:28:58;13.27;;;6.20;;
15567;SDS011;7885;42.596;23.044;2023-07-22T00:31:25;13.47;;;6.33;;
15567;SDS011;7885;42.596;23.044;2023-07-22T00:33:52;18.70;;;7.03;;
15567;SDS011;7885;42.596;23.044;2023-07-22T00:36:19;20.07;;;7.17;;
15567;SDS011;7885;42.596;23.044;2023-07-22T00:38:46;14.80;;;6.70;;
15567;SDS011;7885;42.596;23.044;2023-07-22T00:41:12;13.23;;;6.53;;
15567;SDS011;7885;42.596;23.044;2023-07-22T00:43:39;12.67;;;6.50;;
15567;SDS011;7885;42.596;23.044;2023-07-22T00:46:07;16.00;;;6.57;;
15567;SDS011;7885;42.596;23.044;2023-07-22T00:48:34;16.57;;;7.43;;
15567;SDS011;7885;42.596;23.044;2023-07-22T00:51:01;17.30;;;6.87;;
15567;SDS011;7885;42.596;23.044;2023-07-22T00:53:28;20.33;;;7.20;;
15567;SDS011;7885;42.596;23.044;2023-07-22T00:55:54;20.30;;;6.90;;
15567;SDS011;7885;42.596;23.044;2023-07-22T00:58:21;18.53;;;6.80;;
15567;SDS011;7885;42.596;23.044;2023-07-22T01:00:48;16.33;;;6.83;;
15567;SDS011;7885;42.596;23.044;2023-07-22T01:03:16;15.37;;;7.03;;
15567;SDS011;7885;42.596;23.044;2023-07-22T01:05:44;15.07;;;6.33;;
15567;SDS011;7885;42.596;23.044;2023-07-22T01:08:12;15.87;;;6.93;;
15567;SDS011;7885;42.596;23.044;2023-07-22T01:10:39;19.80;;;6.70;;
15567;SDS011;7885;42.596;23.044;2023-07-22T01:13:07;14.17;;;7.07;;
15567;SDS011;7885;42.596;23.044;2023-07-22T01:15:34;15.97;;;7.67;;
15567;SDS011;7885;42.596;23.044;2023-07-22T01:18:02;17.07;;;7.57;;
15567;SDS011;7885;42.596;23.044;2023-07-22T01:20:31;13.30;;;7.30;;
15567;SDS011;7885;42.596;23.044;2023-07-22T01:22:59;15.70;;;7.17;;
15567;SDS011;7885;42.596;23.044;2023-07-22T01:25:27;15.57;;;7.13;;
15567;SDS011;7885;42.596;23.044;2023-07-22T01:27:54;17.97;;;7.67;;
15567;SDS011;7885;42.596;23.044;2023-07-22T01:30:21;13.57;;;7.23;;
15567;SDS011;7885;42.596;23.044;2023-07-22T01:32:48;17.27;;;7.27;;
15567;SDS011;7885;42.596;23.044;2023-07-22T01:35:15;15.50;;;7.83;;
15567;SDS011;7885;42.596;23.044;2023-07-22T01:37:42;10.30;;;6.87;;
15567;SDS011;7885;42.596;23.044;2023-07-22T01:40:11;12.80;;;7.03;;
15567;SDS011;7885;42.596;23.044;2023-07-22T01:42:38;11.53;;;7.20;;
15567;SDS011;7885;42.596;23.044;2023-07-22T01:45:06;15.70;;;6.73;;
15567;SDS011;7885;42.596;23.044;2023-07-22T01:47:33;14.93;;;7.23;;
15567;SDS011;7885;42.596;23.044;2023-07-22T01:50:01;10.77;;;7.23;;
15567;SDS011;7885;42.596;23.044;2023-07-22T01:52:28;14.17;;;7.60;;
15567;SDS011;7885;42.596;23.044;2023-07-22T01:54:55;16.40;;;7.67;;
15567;SDS011;7885;42.596;23.044;2023-07-22T01:57:23;14.90;;;7.47;;
15567;SDS011;7885;42.596;23.044;2023-07-22T01:59:50;20.17;;;7.80;;
15567;SDS011;7885;42.596;23.044;2023-07-22T02:02:17;19.87;;;7.20;;
15567;SDS011;7885;42.596;23.044;2023-07-22T02:04:45;19.03;;;7.10;;
15567;SDS011;7885;42.596;23.044;2023-07-22T02:07:12;12.43;;;7.03;;
15567;SDS011;7885;42.596;23.044;2023-07-22T02:09:39;17.90;;;7.50;;
15567;SDS011;7885;42.596;23.044;2023-07-22T02:12:06;11.93;;;6.97;;
15567;SDS011;7885;42.596;23.044;2023-07-22T02:14:35;16.87;;;7.13;;
15567;SDS011;7885;42.596;23.044;2023-07-22T02:17:02;12.37;;;6.90;;
15567;SDS011;7885;42.596;23.044;2023-07-22T02:19:29;17.87;;;7.17;;
15567;SDS011;7885;42.596;23.044;2023-07-22T02:21:57;17.27;;;7.27;;
15567;SDS011;7885;42.596;23.044;2023-07-22T02:24:24;12.40;;;6.73;;
15567;SDS011;7885;42.596;23.044;2023-07-22T02:26:50;12.97;;;6.93;;
15567;SDS011;7885;42.596;23.044;2023-07-22T02:29:17;14.93;;;7.53;;
15567;SDS011;7885;42.596;23.044;2023-07-22T02:31:46;13.60;;;6.77;;
15567;SDS011;7885;42.596;23.044;2023-07-22T02:34:12;17.17;;;7.17;;
15567;SDS011;7885;42.596;23.044;2023-07-22T02:36:39;15.10;;;8.00;;
15567;SDS011;7885;42.596;23.044;2023-07-22T02:39:06;15.63;;;7.07;;
15567;SDS011;7885;42.596;23.044;2023-07-22T02:41:34;12.40;;;7.33;;
15567;SDS011;7885;42.596;23.044;2023-07-22T02:44:02;16.07;;;7.33;;
15567;SDS011;7885;42.596;23.044;2023-07-22T02:46:29;13.80;;;6.90;;
15567;SDS011;7885;42.596;23.044;2023-07-22T02:48:57;18.33;;;7.17;;
15567;SDS011;7885;42.596;23.044;2023-07-22T02:51:24;13.77;;;7.40;;
15567;SDS011;7885;42.596;23.044;2023-07-22T02:53:51;14.80;;;7.70;;
15567;SDS011;7885;42.596;23.044;2023-07-22T02:56:18;13.70;;;6.93;;
15567;SDS011;7885;42.596;23.044;2023-07-22T02:58:45;15.20;;;7.53;;
15567;SDS011;7885;42.596;23.044;2023-07-22T03:01:11;15.87;;;7.27;;
15567;SDS011;7885;42.596;23.044;2023-07-22T03:03:38;17.03;;;7.93;;
15567;SDS011;7885;42.596;23.044;2023-07-22T03:06:07;13.13;;;6.97;;
15567;SDS011;7885;42.596;23.044;2023-07-22T03:08:34;14.77;;;7.30;;
15567;SDS011;7885;42.596;23.044;2023-07-22T03:11:01;15.10;;;6.97;;
15567;SDS011;7885;42.596;23.044;2023-07-22T03:13:28;13.20;;;7.77;;
15567;SDS011;7885;42.596;23.044;2023-07-22T03:15:55;14.07;;;7.70;;
15567;SDS011;7885;42.596;23.044;2023-07-22T03:18:22;12.73;;;7.73;;
15567;SDS011;7885;42.596;23.044;2023-07-22T03:20:49;11.90;;;8.03;;
15567;SDS011;7885;42.596;23.044;2023-07-22T03:23:18;15.57;;;7.93;;
15567;SDS011;7885;42.596;23.044;2023-07-22T03:25:45;13.53;;;7.70;;
15567;SDS011;7885;42.596;23.044;2023-07-22T03:28:13;14.67;;;7.40;;
15567;SDS011;7885;42.596;23.044;2023-07-22T03:30:39;14.77;;;7.83;;
15567;SDS011;7885;42.596;23.044;2023-07-22T03:36:28;21.13;;;8.47;;
15567;SDS011;7885;42.596;23.044;2023-07-22T03:38:56;20.23;;;8.00;;
15567;SDS011;7885;42.596;23.044;2023-07-22T03:41:23;17.57;;;8.03;;
15567;SDS011;7885;42.596;23.044;2023-07-22T03:43:49;13.80;;;7.90;;
15567;SDS011;7885;42.596;23.044;2023-07-22T03:46:16;17.73;;;8.13;;
15567;SDS011;7885;42.596;23.044;2023-07-22T03:48:43;14.60;;;7.67;;
15567;SDS011;7885;42.596;23.044;2023-07-22T03:51:10;13.50;;;7.50;;
15567;SDS011;7885;42.596;23.044;2023-07-22T03:53:36;16.00;;;8.07;;
15567;SDS011;7885;42.596;23.044;2023-07-22T03:56:04;13.43;;;7.40;;
15567;SDS011;7885;42.596;23.044;2023-07-22T03:58:31;17.60;;;7.97;;
15567;SDS011;7885;42.596;23.044;2023-07-22T04:00:58;12.87;;;7.50;;
15567;SDS011;7885;42.596;23.044;2023-07-22T04:03:25;16.43;;;7.83;;
15567;SDS011;7885;42.596;23.044;2023-07-22T04:05:54;14.93;;;7.77;;
15567;SDS011;7885;42.596;23.044;2023-07-22T04:08:21;16.00;;;8.10;;
15567;SDS011;7885;42.596;23.044;2023-07-22T04:10:51;20.13;;;8.80;;
15567;SDS011;7885;42.596;23.044;2023-07-22T04:13:20;18.27;;;7.80;;
15567;SDS011;7885;42.596;23.044;2023-07-22T04:15:47;20.10;;;8.97;;
15567;SDS011;7885;42.596;23.044;2023-07-22T04:18:14;17.73;;;8.03;;
15567;SDS011;7885;42.596;23.044;2023-07-22T04:20:41;18.87;;;8.50;;
15567;SDS011;7885;42.596;23.044;2023-07-22T04:23:08;21.57;;;8.60;;
15567;SDS011;7885;42.596;23.044;2023-07-22T04:25:38;19.77;;;8.60;;
15567;SDS011;7885;42.596;23.044;2023-07-22T04:28:05;12.13;;;7.83;;
15567;SDS011;7885;42.596;23.044;2023-07-22T04:30:34;14.07;;;7.97;;
15567;SDS011;7885;42.596;23.044;2023-07-22T04:33:01;16.20;;;7.93;;
15567;SDS011;7885;42.596;23.044;2023-07-22T04:35:31;27.63;;;9.70;;
15567;SDS011;7885;42.596;23.044;2023-07-22T04:37:58;18.10;;;9.00;;
15567;SDS011;7885;42.596;23.044;2023-07-22T04:40:24;26.17;;;9.10;;
15567;SDS011;7885;42.596;23.044;2023-07-22T04:42:51;20.07;;;9.50;;
15567;SDS011;7885;42.596;23.044;2023-07-22T04:45:18;28.93;;;9.37;;
15567;SDS011;7885;42.596;23.044;2023-07-22T04:47:46;21.43;;;8.77;;
15567;SDS011;7885;42.596;23.044;2023-07-22T04:50:14;13.17;;;8.20;;
15567;SDS011;7885;42.596;23.044;2023-07-22T04:52:41;17.13;;;8.67;;
15567;SDS011;7885;42.596;23.044;2023-07-22T04:55:09;23.57;;;8.33;;
15567;SDS011;7885;42.596;23.044;2023-07-22T04:57:37;20.20;;;8.17;;
15567;SDS011;7885;42.596;23.044;2023-07-22T05:00:06;24.63;;;8.20;;
15567;SDS011;7885;42.596;23.044;2023-07-22T05:02:34;22.67;;;7.90;;
15567;SDS011;7885;42.596;23.044;2023-07-22T05:05:03;20.60;;;8.37;;
15567;SDS011;7885;42.596;23.044;2023-07-22T05:07:30;24.13;;;7.73;;
15567;SDS011;7885;42.596;23.044;2023-07-22T05:09:57;25.47;;;8.50;;
15567;SDS011;7885;42.596;23.044;2023-07-22T05:12:24;20.80;;;7.97;;
15567;SDS011;7885;42.596;23.044;2023-07-22T05:14:50;34.20;;;8.67;;
15567;SDS011;7885;42.596;23.044;2023-07-22T05:17:17;16.90;;;7.90;;
15567;SDS011;7885;42.596;23.044;2023-07-22T05:19:44;17.47;;;8.00;;
15567;SDS011;7885;42.596;23.044;2023-07-22T05:22:12;20.40;;;8.27;;
15567;SDS011;7885;42.596;23.044;2023-07-22T05:24:38;22.13;;;7.90;;
15567;SDS011;7885;42.596;23.044;2023-07-22T05:27:05;15.07;;;7.40;;
15567;SDS011;7885;42.596;23.044;2023-07-22T05:29:32;11.97;;;7.03;;
15567;SDS011;7885;42.596;23.044;2023-07-22T05:31:59;15.07;;;7.60;;
15567;SDS011;7885;42.596;23.044;2023-07-22T05:34:26;15.77;;;6.77;;
15567;SDS011;7885;42.596;23.044;2023-07-22T05:36:52;11.13;;;6.50;;
15567;SDS011;7885;42.596;23.044;2023-07-22T05:39:20;12.70;;;7.00;;
15567;SDS011;7885;42.596;23.044;2023-07-22T05:41:47;16.40;;;6.63;;
15567;SDS011;7885;42.596;23.044;2023-07-22T05:44:14;13.70;;;6.73;;
15567;SDS011;7885;42.596;23.044;2023-07-22T05:46:40;14.57;;;7.03;;
15567;SDS011;7885;42.596;23.044;2023-07-22T05:49:08;17.20;;;6.37;;
15567;SDS011;7885;42.596;23.044;2023-07-22T05:51:35;12.17;;;7.50;;
15567;SDS011;7885;42.596;23.044;2023-07-22T05:54:02;12.27;;;7.00;;
15567;SDS011;7885;42.596;23.044;2023-07-22T05:56:30;23.83;;;8.23;;
15567;SDS011;7885;42.596;23.044;2023-07-22T05:58:57;22.83;;;9.37;;
15567;SDS011;7885;42.596;23.044;2023-07-22T06:01:24;30.77;;;9.53;;
15567;SDS011;7885;42.596;23.044;2023-07-22T06:03:51;26.70;;;8.93;;
15567;SDS011;7885;42.596;23.044;2023-07-22T06:06:18;33.00;;;10.73;;
15567;SDS011;7885;42.596;23.044;2023-07-22T06:08:45;32.20;;;10.77;;
15567;SDS011;7885;42.596;23.044;2023-07-22T06:11:11;25.30;;;9.90;;
15567;SDS011;7885;42.596;23.044;2023-07-22T06:13:40;30.80;;;10.27;;
15567;SDS011;7885;42.596;23.044;2023-07-22T06:16:06;29.38;;;9.75;;
15567;SDS011;7885;42.596;23.044;2023-07-22T06:18:33;25.48;;;9.45;;
15567;SDS011;7885;42.596;23.044;2023-07-22T06:21:00;21.27;;;8.95;;
15567;SDS011;7885;42.596;23.044;2023-07-22T06:23:27;23.52;;;8.70;;
15567;SDS011;7885;42.596;23.044;2023-07-22T06:25:53;22.43;;;9.23;;
15567;SDS011;7885;42.596;23.044;2023-07-22T06:28:20;20.73;;;9.23;;
15567;SDS011;7885;42.596;23.044;2023-07-22T06:37:31;20.98;;;8.20;;
15567;SDS011;7885;42.596;23.044;2023-07-22T06:39:59;19.38;;;8.00;;
15567;SDS011;7885;42.596;23.044;2023-07-22T06:42:25;16.77;;;8.40;;
15567;SDS011;7885;42.596;23.044;2023-07-22T06:44:52;19.13;;;8.57;;
15567;SDS011;7885;42.596;23.044;2023-07-22T06:54:04;25.83;;;9.10;;
15567;SDS011;7885;42.596;23.044;2023-07-22T06:56:30;17.30;;;8.40;;
15567;SDS011;7885;42.596;23.044;2023-07-22T06:58:57;22.83;;;11.52;;
15567;SDS011;7885;42.596;23.044;2023-07-22T07:01:24;22.63;;;8.82;;
15567;SDS011;7885;42.596;23.044;2023-07-22T07:03:51;18.35;;;8.10;;
15567;SDS011;7885;42.596;23.044;2023-07-22T07:06:18;18.00;;;8.63;;
15567;SDS011;7885;42.596;23.044;2023-07-22T07:08:44;19.65;;;8.82;;
15567;SDS011;7885;42.596;23.044;2023-07-22T07:11:12;20.35;;;9.25;;
15567;SDS011;7885;42.596;23.044;2023-07-22T07:13:40;15.50;;;8.70;;
15567;SDS011;7885;42.596;23.044;2023-07-22T07:16:22;15.40;;;8.60;;
15567;SDS011;7885;42.596;23.044;2023-07-22T07:18:49;15.23;;;8.48;;
15567;SDS011;7885;42.596;23.044;2023-07-22T07:21:17;17.25;;;8.32;;
15567;SDS011;7885;42.596;23.044;2023-07-22T07:23:43;13.05;;;8.20;;
15567;SDS011;7885;42.596;23.044;2023-07-22T07:26:10;14.18;;;9.05;;
15567;SDS011;7885;42.596;23.044;2023-07-22T07:28:39;15.18;;;8.60;;
15567;SDS011;7885;42.596;23.044;2023-07-22T07:31:06;17.70;;;8.75;;
15567;SDS011;7885;42.596;23.044;2023-07-22T07:33:32;16.55;;;8.25;;
15567;SDS011;7885;42.596;23.044;2023-07-22T07:35:59;12.25;;;7.90;;
15567;SDS011;7885;42.596;23.044;2023-07-22T07:38:26;15.88;;;8.15;;
15567;SDS011;7885;42.596;23.044;2023-07-22T07:40:55;16.35;;;8.68;;
15567;SDS011;7885;42.596;23.044;2023-07-22T07:43:25;15.45;;;8.73;;
15567;SDS011;7885;42.596;23.044;2023-07-22T07:48:42;12.02;;;8.00;;
15567;SDS011;7885;42.596;23.044;2023-07-22T07:51:09;13.93;;;8.00;;
15567;SDS011;7885;42.596;23.044;2023-07-22T07:53:37;15.57;;;8.05;;
15567;SDS011;7885;42.596;23.044;2023-07-22T07:56:04;16.58;;;8.52;;
15567;SDS011;7885;42.596;23.044;2023-07-22T07:58:32;15.98;;;8.38;;
15567;SDS011;7885;42.596;23.044;2023-07-22T08:00:59;11.55;;;8.00;;
15567;SDS011;7885;42.596;23.044;2023-07-22T08:03:25;13.32;;;8.18;;
15567;SDS011;7885;42.596;23.044;2023-07-22T08:05:52;14.60;;;8.60;;
15567;SDS011;7885;42.596;23.044;2023-07-22T08:08:19;14.20;;;8.13;;
15567;SDS011;7885;42.596;23.044;2023-07-22T08:10:46;13.70;;;8.20;;
15567;SDS011;7885;42.596;23.044;2023-07-22T08:13:13;15.68;;;8.73;;
15567;SDS011;7885;42.596;23.044;2023-07-22T08:15:41;14.23;;;9.07;;
15567;SDS011;7885;42.596;23.044;2023-07-22T08:18:08;13.43;;;7.90;;
15567;SDS011;7885;42.596;23.044;2023-07-22T08:20:35;11.95;;;7.97;;
15567;SDS011;7885;42.596;23.044;2023-07-22T08:23:02;11.55;;;7.80;;
15567;SDS011;7885;42.596;23.044;2023-07-22T08:25:29;9.75;;;7.25;;
15567;SDS011;7885;42.596;23.044;2023-07-22T08:27:55;11.38;;;8.30;;
15567;SDS011;7885;42.596;23.044;2023-07-22T08:30:22;12.82;;;7.75;;
15567;SDS011;7885;42.596;23.044;2023-07-22T08:32:50;15.25;;;7.68;;
15567;SDS011;7885;42.596;23.044;2023-07-22T08:35:17;12.27;;;8.10;;
15567;SDS011;7885;42.596;23.044;2023-07-22T08:37:44;13.32;;;7.65;;
15567;SDS011;7885;42.596;23.044;2023-07-22T08:40:12;11.93;;;7.10;;
15567;SDS011;7885;42.596;23.044;2023-07-22T08:42:39;11.07;;;7.15;;
15567;SDS011;7885;42.596;23.044;2023-07-22T08:45:08;12.93;;;7.00;;
15567;SDS011;7885;42.596;23.044;2023-07-22T08:47:38;9.05;;;6.95;;
15567;SDS011;7885;42.596;23.044;2023-07-22T08:50:12;11.95;;;7.07;;
15567;SDS011;7885;42.596;23.044;2023-07-22T08:52:43;12.35;;;6.75;;
15567;SDS011;7885;42.596;23.044;2023-07-22T08:55:10;12.40;;;6.28;;
15567;SDS011;7885;42.596;23.044;2023-07-22T08:57:38;11.88;;;6.47;;
15567;SDS011;7885;42.596;23.044;2023-07-22T09:00:06;17.45;;;6.65;;
15567;SDS011;7885;42.596;23.044;2023-07-22T09:02:36;13.98;;;6.57;;
15567;SDS011;7885;42.596;23.044;2023-07-22T09:05:05;12.65;;;6.50;;
15567;SDS011;7885;42.596;23.044;2023-07-22T09:07:35;21.58;;;7.05;;
15567;SDS011;7885;42.596;23.044;2023-07-22T09:10:04;11.80;;;6.40;;
15567;SDS011;7885;42.596;23.044;2023-07-22T09:12:33;15.13;;;6.53;;
15567;SDS011;7885;42.596;23.044;2023-07-22T09:15:05;10.98;;;6.55;;
15567;SDS011;7885;42.596;23.044;2023-07-22T09:17:35;12.30;;;5.60;;
15567;SDS011;7885;42.596;23.044;2023-07-22T09:20:03;15.15;;;6.10;;
15567;SDS011;7885;42.596;23.044;2023-07-22T09:22:31;13.50;;;5.90;;
15567;SDS011;7885;42.596;23.044;2023-07-22T09:25:13;13.15;;;5.82;;
15567;SDS011;7885;42.596;23.044;2023-07-22T09:27:41;12.95;;;6.25;;
15567;SDS011;7885;42.596;23.044;2023-07-22T09:30:19;12.88;;;6.78;;
15567;SDS011;7885;42.596;23.044;2023-07-22T09:32:47;15.48;;;6.10;;
15567;SDS011;7885;42.596;23.044;2023-07-22T09:35:14;16.05;;;6.70;;
15567;SDS011;7885;42.596;23.044;2023-07-22T09:37:41;11.55;;;6.63;;
15567;SDS011;7885;42.596;23.044;2023-07-22T09:40:15;13.20;;;6.78;;
15567;SDS011;7885;42.596;23.044;2023-07-22T09:42:47;14.48;;;6.53;;
15567;SDS011;7885;42.596;23.044;2023-07-22T09:45:14;16.08;;;6.75;;
15567;SDS011;7885;42.596;23.044;2023-07-22T09:47:42;15.38;;;6.15;;
15567;SDS011;7885;42.596;23.044;2023-07-22T09:50:10;13.20;;;6.30;;
15567;SDS011;7885;42.596;23.044;2023-07-22T09:52:41;13.73;;;6.75;;
15567;SDS011;7885;42.596;23.044;2023-07-22T09:55:33;15.10;;;6.38;;
15567;SDS011;7885;42.596;23.044;2023-07-22T09:58:00;16.67;;;6.50;;
15567;SDS011;7885;42.596;23.044;2023-07-22T10:00:28;14.48;;;6.72;;
15567;SDS011;7885;42.596;23.044;2023-07-22T10:02:56;14.32;;;5.97;;
15567;SDS011;7885;42.596;23.044;2023-07-22T10:05:25;15.00;;;6.65;;
15567;SDS011;7885;42.596;23.044;2023-07-22T10:07:55;15.65;;;6.05;;
15567;SDS011;7885;42.596;23.044;2023-07-22T10:10:23;13.52;;;5.88;;
15567;SDS011;7885;42.596;23.044;2023-07-22T10:12:59;19.65;;;6.63;;
15567;SDS011;7885;42.596;23.044;2023-07-22T10:15:28;15.70;;;6.40;;
15567;SDS011;7885;42.596;23.044;2023-07-22T10:17:58;17.27;;;6.32;;
15567;SDS011;7885;42.596;23.044;2023-07-22T10:20:27;20.17;;;7.03;;
15567;SDS011;7885;42.596;23.044;2023-07-22T10:22:55;16.48;;;6.65;;
15567;SDS011;7885;42.596;23.044;2023-07-22T10:25:22;10.80;;;5.93;;
15567;SDS011;7885;42.596;23.044;2023-07-22T10:27:50;14.65;;;6.57;;
15567;SDS011;7885;42.596;23.044;2023-07-22T10:30:20;17.65;;;6.35;;
15567;SDS011;7885;42.596;23.044;2023-07-22T10:32:47;19.55;;;6.50;;
15567;SDS011;7885;42.596;23.044;2023-07-22T10:35:17;16.52;;;6.28;;
15567;SDS011;7885;42.596;23.044;2023-07-22T10:37:48;22.27;;;5.70;;
15567;SDS011;7885;42.596;23.044;2023-07-22T10:40:19;15.20;;;5.13;;
15567;SDS011;7885;42.596;23.044;2023-07-22T10:42:52;19.73;;;6.32;;
15567;SDS011;7885;42.596;23.044;2023-07-22T10:45:28;20.10;;;6.93;;
15567;SDS011;7885;42.596;23.044;2023-07-22T10:48:02;19.25;;;6.60;;
15567;SDS011;7885;42.596;23.044;2023-07-22T10:50:38;15.80;;;6.30;;
15567;SDS011;7885;42.596;23.044;2023-07-22T10:53:08;14.95;;;6.07;;
15567;SDS011;7885;42.596;23.044;2023-07-22T11:01:30;18.90;;;6.43;;
15567;SDS011;7885;42.596;23.044;2023-07-22T11:04:08;17.30;;;6.25;;
15567;SDS011;7885;42.596;23.044;2023-07-22T11:06:38;20.40;;;6.47;;
15567;SDS011;7885;42.596;23.044;2023-07-22T11:09:37;19.67;;;5.97;;
15567;SDS011;7885;42.596;23.044;2023-07-22T11:12:06;18.52;;;6.15;;
15567;SDS011;7885;42.596;23.044;2023-07-22T11:14:37;15.48;;;6.38;;
15567;SDS011;7885;42.596;23.044;2023-07-22T11:17:06;24.48;;;6.65;;
15567;SDS011;7885;42.596;23.044;2023-07-22T11:19:34;20.65;;;5.90;;
15567;SDS011;7885;42.596;23.044;2023-07-22T11:22:01;18.88;;;6.47;;
15567;SDS011;7885;42.596;23.044;2023-07-22T11:24:29;19.17;;;6.30;;
15567;SDS011;7885;42.596;23.044;2023-07-22T11:26:56;17.10;;;6.22;;
15567;SDS011;7885;42.596;23.044;2023-07-22T11:29:23;19.88;;;6.07;;
15567;SDS011;7885;42.596;23.044;2023-07-22T11:31:50;17.77;;;6.00;;
15567;SDS011;7885;42.596;23.044;2023-07-22T11:34:19;19.67;;;6.68;;
15567;SDS011;7885;42.596;23.044;2023-07-22T11:36:47;18.77;;;6.00;;
15567;SDS011;7885;42.596;23.044;2023-07-22T11:39:16;24.25;;;6.82;;
15567;SDS011;7885;42.596;23.044;2023-07-22T11:48:27;24.02;;;6.22;;
15567;SDS011;7885;42.596;23.044;2023-07-22T11:50:59;17.67;;;5.97;;
15567;SDS011;7885;42.596;23.044;2023-07-22T11:53:26;19.65;;;6.28;;
15567;SDS011;7885;42.596;23.044;2023-07-22T11:55:54;18.92;;;6.35;;
15567;SDS011;7885;42.596;23.044;2023-07-22T11:58:25;19.98;;;6.35;;
15567;SDS011;7885;42.596;23.044;2023-07-22T12:01:01;16.60;;;5.88;;
15567;SDS011;7885;42.596;23.044;2023-07-22T12:03:30;16.90;;;5.85;;
15567;SDS011;7885;42.596;23.044;2023-07-22T12:06:01;15.10;;;5.68;;
15567;SDS011;7885;42.596;23.044;2023-07-22T12:08:29;20.83;;;6.07;;
15567;SDS011;7885;42.596;23.044;2023-07-22T12:10:56;20.25;;;6.00;;
15567;SDS011;7885;42.596;23.044;2023-07-22T12:13:23;25.30;;;6.10;;
15567;SDS011;7885;42.596;23.044;2023-07-22T12:15:59;20.88;;;6.20;;
15567;SDS011;7885;42.596;23.044;2023-07-22T12:18:26;24.95;;;6.07;;
15567;SDS011;7885;42.596;23.044;2023-07-22T12:20:53;23.58;;;6.57;;
15567;SDS011;7885;42.596;23.044;2023-07-22T12:23:22;25.75;;;5.97;;
15567;SDS011;7885;42.596;23.044;2023-07-22T12:25:48;19.83;;;5.47;;
15567;SDS011;7885;42.596;23.044;2023-07-22T12:28:15;19.63;;;5.47;;
15567;SDS011;7885;42.596;23.044;2023-07-22T12:30:49;20.00;;;5.70;;
15567;SDS011;7885;42.596;23.044;2023-07-22T12:33:15;19.83;;;5.63;;
15567;SDS011;7885;42.596;23.044;2023-07-22T12:35:42;23.20;;;6.10;;
15567;SDS011;7885;42.596;23.044;2023-07-22T12:38:09;27.27;;;5.55;;
15567;SDS011;7885;42.596;23.044;2023-07-22T12:40:37;22.90;;;5.60;;
15567;SDS011;7885;42.596;23.044;2023-07-22T12:43:05;22.15;;;5.40;;
15567;SDS011;7885;42.596;23.044;2023-07-22T12:45:31;20.05;;;5.40;;
15567;SDS011;7885;42.596;23.044;2023-07-22T12:47:58;18.45;;;5.28;;
15567;SDS011;7885;42.596;23.044;2023-07-22T12:50:25;19.17;;;5.20;;
15567;SDS011;7885;42.596;23.044;2023-07-22T12:52:52;23.17;;;5.88;;
15567;SDS011;7885;42.596;23.044;2023-07-22T12:55:22;21.38;;;5.38;;
15567;SDS011;7885;42.596;23.044;2023-07-22T12:57:50;24.30;;;5.20;;
15567;SDS011;7885;42.596;23.044;2023-07-22T13:00:17;22.73;;;5.60;;
15567;SDS011;7885;42.596;23.044;2023-07-22T13:02:44;27.67;;;5.60;;
15567;SDS011;7885;42.596;23.044;2023-07-22T13:05:11;20.67;;;5.85;;
15567;SDS011;7885;42.596;23.044;2023-07-22T13:07:38;19.08;;;5.30;;
15567;SDS011;7885;42.596;23.044;2023-07-22T13:10:06;20.65;;;5.15;;
15567;SDS011;7885;42.596;23.044;2023-07-22T13:12:42;22.10;;;5.72;;
15567;SDS011;7885;42.596;23.044;2023-07-22T13:15:10;20.55;;;5.40;;
15567;SDS011;7885;42.596;23.044;2023-07-22T13:17:37;23.02;;;5.68;;
15567;SDS011;7885;42.596;23.044;2023-07-22T13:20:04;25.85;;;6.00;;
15567;SDS011;7885;42.596;23.044;2023-07-22T13:22:34;18.08;;;5.60;;
15567;SDS011;7885;42.596;23.044;2023-07-22T13:25:01;22.83;;;5.93;;
15567;SDS011;7885;42.596;23.044;2023-07-22T13:27:28;21.58;;;6.07;;
15567;SDS011;7885;42.596;23.044;2023-07-22T13:29:55;23.85;;;5.78;;
15567;SDS011;7885;42.596;23.044;2023-07-22T13:32:23;22.67;;;5.63;;
15567;SDS011;7885;42.596;23.044;2023-07-22T13:34:50;22.30;;;5.60;;
15567;SDS011;7885;42.596;23.044;2023-07-22T13:37:17;24.58;;;5.57;;
15567;SDS011;7885;42.596;23.044;2023-07-22T13:39:44;24.83;;;6.20;;
15567;SDS011;7885;42.596;23.044;2023-07-22T13:42:11;21.13;;;6.10;;
15567;SDS011;7885;42.596;23.044;2023-07-22T13:44:37;23.20;;;6.28;;
15567;SDS011;7885;42.596;23.044;2023-07-22T13:47:04;16.80;;;5.30;;
15567;SDS011;7885;42.596;23.044;2023-07-22T13:49:32;25.58;;;6.13;;
15567;SDS011;7885;42.596;23.044;2023-07-22T13:51:59;23.00;;;5.60;;
15567;SDS011;7885;42.596;23.044;2023-07-22T13:54:26;18.92;;;5.80;;
15567;SDS011;7885;42.596;23.044;2023-07-22T13:56:52;23.05;;;5.93;;
15567;SDS011;7885;42.596;23.044;2023-07-22T13:59:19;26.23;;;6.63;;
15567;SDS011;7885;42.596;23.044;2023-07-22T14:01:46;24.63;;;6.43;;
15567;SDS011;7885;42.596;23.044;2023-07-22T14:04:13;24.10;;;5.82;;
15567;SDS011;7885;42.596;23.044;2023-07-22T14:06:41;22.33;;;6.32;;
15567;SDS011;7885;42.596;23.044;2023-07-22T14:09:08;21.48;;;5.95;;
15567;SDS011;7885;42.596;23.044;2023-07-22T14:11:35;24.38;;;6.40;;
15567;SDS011;7885;42.596;23.044;2023-07-22T14:14:02;21.60;;;6.25;;
15567;SDS011;7885;42.596;23.044;2023-07-22T14:16:28;23.83;;;5.75;;
15567;SDS011;7885;42.596;23.044;2023-07-22T14:18:55;21.40;;;6.13;;
15567;SDS011;7885;42.596;23.044;2023-07-22T14:21:22;26.55;;;6.35;;
15567;SDS011;7885;42.596;23.044;2023-07-22T14:23:50;23.65;;;6.65;;
15567;SDS011;7885;42.596;23.044;2023-07-22T14:26:17;18.60;;;5.88;;
15567;SDS011;7885;42.596;23.044;2023-07-22T14:28:45;21.35;;;6.35;;
15567;SDS011;7885;42.596;23.044;2023-07-22T14:31:12;21.60;;;6.07;;
15567;SDS011;7885;42.596;23.044;2023-07-22T14:33:39;23.40;;;6.47;;
15567;SDS011;7885;42.596;23.044;2023-07-22T14:36:05;20.23;;;5.85;;
15567;SDS011;7885;42.596;23.044;2023-07-22T14:38:32;18.65;;;6.13;;
15567;SDS011;7885;42.596;23.044;2023-07-22T14:41:00;21.17;;;6.40;;
15567;SDS011;7885;42.596;23.044;2023-07-22T14:43:28;20.17;;;6.55;;
15567;SDS011;7885;42.596;23.044;2023-07-22T14:45:54;16.85;;;5.85;;
15567;SDS011;7885;42.596;23.044;2023-07-22T14:48:21;21.38;;;6.10;;
15567;SDS011;7885;42.596;23.044;2023-07-22T14:50:48;17.60;;;6.03;;
15567;SDS011;7885;42.596;23.044;2023-07-22T14:53:15;20.77;;;6.60;;
15567;SDS011;7885;42.596;23.044;2023-07-22T14:55:41;25.00;;;6.43;;
15567;SDS011;7885;42.596;23.044;2023-07-22T14:58:10;24.08;;;6.95;;
15567;SDS011;7885;42.596;23.044;2023-07-22T15:00:36;19.33;;;5.95;;
15567;SDS011;7885;42.596;23.044;2023-07-22T15:03:03;22.00;;;6.65;;
15567;SDS011;7885;42.596;23.044;2023-07-22T15:05:30;25.35;;;6.40;;
15567;SDS011;7885;42.596;23.044;2023-07-22T15:07:57;23.65;;;6.07;;
15567;SDS011;7885;42.596;23.044;2023-07-22T15:10:23;23.77;;;6.65;;